createdAt,value
2023-01-11T00:00:35.182Z,94072.59
2023-01-11T00:01:32.539Z,94134.69
2023-01-11T00:02:29.489Z,93761.09
2023-01-11T00:03:26.240Z,94115.09
2023-01-11T00:04:30.551Z,94157.91
2023-01-11T00:05:28.078Z,94143.75
2023-01-11T00:06:24.925Z,94157.59
2023-01-11T00:07:21.826Z,94147.16
2023-01-11T00:08:19.318Z,93901.72
2023-01-11T00:09:16.200Z,94049.91
2023-01-11T00:10:13.127Z,94119.53
2023-01-11T00:11:14.412Z,93926.16
2023-01-11T00:12:14.361Z,94009.78
2023-01-11T00:13:11.206Z,94034.25
2023-01-11T00:14:07.966Z,94095.38
2023-01-11T00:15:05.184Z,93935.84
2023-01-11T00:16:06.665Z,94001.91
2023-01-11T00:17:03.446Z,94045.63
2023-01-11T00:18:03.169Z,93947.84
2023-01-11T00:18:59.975Z,94126.13
2023-01-11T00:19:56.809Z,94110.47
2023-01-11T00:21:14.548Z,94108.69
2023-01-11T00:22:11.364Z,94031.22
2023-01-11T00:23:08.910Z,93943.91
2023-01-11T00:24:06.294Z,94056.94
2023-01-11T00:25:03.499Z,94154.44
2023-01-11T00:26:03.819Z,94151.22
2023-01-11T00:27:00.800Z,94150.81
2023-01-11T00:27:57.756Z,94105.69
2023-01-11T00:28:54.615Z,94096.28
2023-01-11T00:29:51.349Z,94138.56
2023-01-11T00:30:49.490Z,94098.28
2023-01-11T00:31:46.266Z,94134.34
2023-01-11T00:32:43.513Z,94085.22
2023-01-11T00:33:40.214Z,93981.13
2023-01-11T00:34:37.142Z,94166.38
2023-01-11T00:35:33.902Z,94161.94
2023-01-11T00:36:30.715Z,94159.69
2023-01-11T00:37:27.517Z,93839.19
2023-01-11T00:38:43.007Z,94160.81
2023-01-11T00:39:39.908Z,94088.78
2023-01-11T00:40:36.664Z,94157.38
2023-01-11T00:41:51.933Z,94149.34
2023-01-11T00:43:07.290Z,94112.09
2023-01-11T00:44:24.201Z,94103.25
2023-01-11T00:45:39.807Z,93964.13
2023-01-11T00:46:56.082Z,93724.88
2023-01-11T00:48:00.313Z,93751.56
2023-01-11T00:48:57.027Z,93870.19
2023-01-11T00:49:53.748Z,94163.91
2023-01-11T00:50:55.361Z,94135.59
2023-01-11T00:51:52.136Z,94141.09
2023-01-11T00:52:48.887Z,94140.03
2023-01-11T00:53:48.470Z,94135.91
2023-01-11T00:54:45.282Z,94168.25
2023-01-11T00:55:42.711Z,94084.94
2023-01-11T00:56:39.829Z,94080.03
2023-01-11T00:57:36.636Z,94144.75
2023-01-11T00:58:33.403Z,94176.44
2023-01-11T00:59:30.136Z,93759.75
2023-01-11T01:00:28.716Z,94122.66
2023-01-11T01:01:25.503Z,94137.13
2023-01-11T01:02:22.699Z,94140.41
2023-01-11T01:03:19.722Z,94153.72
2023-01-11T01:04:16.550Z,93967.25
2023-01-11T01:05:13.397Z,94136.34
2023-01-11T01:06:10.093Z,94143.19
2023-01-11T01:07:07.663Z,94037.25
2023-01-11T01:08:04.687Z,94078.28
2023-01-11T01:09:01.408Z,94137.53
2023-01-11T01:09:58.255Z,93942.28
2023-01-11T01:10:55.094Z,94178.72
2023-01-11T01:11:51.837Z,94040.78
2023-01-11T01:13:07.567Z,94058.47
2023-01-11T01:14:22.667Z,94146.53
2023-01-11T01:15:20.450Z,94161.19
2023-01-11T01:16:17.396Z,94134.72
2023-01-11T01:17:14.207Z,94148.59
2023-01-11T01:18:11.055Z,93698.88
2023-01-11T01:19:09.081Z,94115.84
2023-01-11T01:20:06.763Z,94115.91
2023-01-11T01:21:03.984Z,94156.31
2023-01-11T01:22:01.289Z,94038.34
2023-01-11T01:22:58.029Z,94147.38
2023-01-11T01:23:55.825Z,94069.22
2023-01-11T01:24:52.615Z,94006.41
2023-01-11T01:25:49.392Z,93979.09
2023-01-11T01:26:46.157Z,94187.59
2023-01-11T01:27:42.931Z,94086.78
2023-01-11T01:28:39.827Z,94121.22
2023-01-11T01:29:36.576Z,94095.81
2023-01-11T01:30:33.815Z,94123.38
2023-01-11T01:31:30.725Z,94081.78
2023-01-11T01:32:27.567Z,94076.91
2023-01-11T01:33:25.113Z,94104.66
2023-01-11T01:34:21.956Z,94181.06
2023-01-11T01:35:18.817Z,93906.97
2023-01-11T01:36:15.720Z,94157.88
2023-01-11T01:37:12.549Z,94203.97
2023-01-11T01:38:09.320Z,94212.97
2023-01-11T01:39:07.852Z,94174.31
2023-01-11T01:40:05.843Z,94169.34
2023-01-11T01:41:02.991Z,94025.63
2023-01-11T01:42:00.129Z,94177.50
2023-01-11T01:42:57.029Z,94123.31
2023-01-11T01:44:03.128Z,94166.75
2023-01-11T01:45:03.990Z,94170.41
2023-01-11T01:46:00.823Z,94035.00
2023-01-11T01:46:57.819Z,94166.75
2023-01-11T01:48:06.865Z,94133.66
2023-01-11T01:49:13.443Z,94030.91
2023-01-11T01:50:41.617Z,94173.22
2023-01-11T01:51:49.919Z,94143.00
2023-01-11T01:52:53.216Z,94175.91
2023-01-11T01:53:55.256Z,94049.94
2023-01-11T01:54:52.088Z,94126.22
2023-01-11T01:55:54.222Z,94181.63
2023-01-11T01:56:59.355Z,94107.72
2023-01-11T01:58:00.095Z,94126.22
2023-01-11T01:59:04.036Z,93999.38
2023-01-11T02:00:06.570Z,94000.03
2023-01-11T02:01:23.706Z,94015.88
2023-01-11T02:02:24.970Z,94103.41
2023-01-11T02:03:26.557Z,94007.47
2023-01-11T02:04:32.067Z,94175.16
2023-01-11T02:05:29.133Z,94163.22
2023-01-11T02:06:26.168Z,94146.19
2023-01-11T02:07:30.740Z,93893.31
2023-01-11T02:08:37.275Z,94160.66
2023-01-11T02:10:04.068Z,94129.94
2023-01-11T02:11:02.368Z,94159.88
2023-01-11T02:12:01.097Z,94104.06
2023-01-11T02:13:05.758Z,94098.53
2023-01-11T02:14:06.760Z,94130.50
2023-01-11T02:15:05.127Z,94168.81
2023-01-11T02:16:08.448Z,94163.41
2023-01-11T02:17:05.953Z,94043.44
2023-01-11T02:18:03.289Z,93752.25
2023-01-11T02:19:01.572Z,94193.00
2023-01-11T02:20:22.514Z,94114.81
2023-01-11T02:21:26.994Z,94178.88
2023-01-11T02:22:37.943Z,94171.47
2023-01-11T02:23:40.628Z,94182.22
2023-01-11T02:24:55.417Z,94181.81
2023-01-11T02:26:40.126Z,94193.59
2023-01-11T02:28:15.108Z,94189.97
2023-01-11T02:29:53.181Z,94223.34
2023-01-11T02:31:05.781Z,94119.41
2023-01-11T02:32:51.925Z,94161.19
2023-01-11T02:34:25.540Z,94215.22
2023-01-11T02:35:57.399Z,94218.66
2023-01-11T02:37:22.969Z,94126.28
2023-01-11T02:38:46.156Z,94218.13
2023-01-11T02:40:06.850Z,94216.94
2023-01-11T02:41:25.497Z,94221.41
2023-01-11T02:43:16.369Z,94225.44
2023-01-11T02:44:36.984Z,94229.00
2023-01-11T02:45:49.246Z,94179.75
2023-01-11T02:46:55.185Z,94201.38
2023-01-11T02:48:00.954Z,94223.75
2023-01-11T02:49:49.244Z,94230.16
2023-01-11T02:50:53.153Z,94226.09
2023-01-11T02:52:01.837Z,94021.81
2023-01-11T02:53:17.288Z,94226.41
2023-01-11T02:54:19.672Z,94012.50
2023-01-11T02:55:23.643Z,94252.06
2023-01-11T02:56:26.617Z,94055.75
2023-01-11T02:57:29.453Z,94251.28
2023-01-11T02:58:32.939Z,94140.66
2023-01-11T02:59:34.842Z,94156.59
2023-01-11T03:00:33.140Z,94068.69
2023-01-11T03:01:29.923Z,94256.41
2023-01-11T03:02:27.693Z,94242.09
2023-01-11T03:03:27.851Z,94180.03
2023-01-11T03:04:35.989Z,94057.97
2023-01-11T03:05:35.528Z,94070.75
2023-01-11T03:06:35.473Z,94210.22
2023-01-11T03:07:59.939Z,94235.44
2023-01-11T03:09:35.024Z,94238.19
2023-01-11T03:11:02.821Z,94187.25
2023-01-11T03:12:47.353Z,94222.28
2023-01-11T03:13:53.010Z,94244.13
2023-01-11T03:15:36.972Z,94238.78
2023-01-11T03:17:03.828Z,94237.59
2023-01-11T03:18:06.458Z,94243.66
2023-01-11T03:19:24.714Z,94098.97
2023-01-11T03:20:31.913Z,94145.34
2023-01-11T03:21:42.737Z,94247.50
2023-01-11T03:22:39.609Z,94248.75
2023-01-11T03:23:55.023Z,94252.19
2023-01-11T03:25:14.198Z,94251.97
2023-01-11T03:26:43.298Z,94255.84
2023-01-11T03:28:00.724Z,94127.97
2023-01-11T03:29:11.724Z,94287.44
2023-01-11T03:30:17.748Z,94258.75
2023-01-11T03:31:17.465Z,94251.50
2023-01-11T03:32:37.472Z,94226.84
2023-01-11T03:34:01.827Z,94249.25
2023-01-11T03:35:26.293Z,94245.56
2023-01-11T03:36:40.213Z,94281.19
2023-01-11T03:37:49.968Z,94154.03
2023-01-11T03:38:59.306Z,94256.72
2023-01-11T03:40:04.321Z,94233.53
2023-01-11T03:41:09.948Z,93927.81
2023-01-11T03:42:11.727Z,94255.25
2023-01-11T03:43:13.485Z,94249.72
2023-01-11T03:44:15.054Z,94201.28
2023-01-11T03:45:12.169Z,94256.50
2023-01-11T03:46:23.953Z,94252.47
2023-01-11T03:47:26.094Z,94276.16
2023-01-11T03:48:30.415Z,93623.75
2023-01-11T03:49:37.032Z,94266.63
2023-01-11T03:50:34.533Z,94211.13
2023-01-11T03:51:38.921Z,94023.72
2023-01-11T03:52:42.268Z,94108.88
2023-01-11T03:53:44.517Z,94222.28
2023-01-11T03:54:44.487Z,93987.16
2023-01-11T03:55:46.909Z,94180.97
2023-01-11T03:57:07.842Z,94144.44
2023-01-11T03:58:05.596Z,94173.31
2023-01-11T03:59:02.910Z,94098.25
2023-01-11T04:00:00.514Z,94208.47
2023-01-11T04:00:58.214Z,94255.91
2023-01-11T04:01:56.422Z,94198.16
2023-01-11T04:02:56.261Z,94011.78
2023-01-11T04:03:53.032Z,94203.41
2023-01-11T04:04:50.041Z,94129.09
2023-01-11T04:05:53.618Z,94262.34
2023-01-11T04:06:50.426Z,94289.50
2023-01-11T04:07:47.204Z,94126.53
2023-01-11T04:08:44.042Z,94199.44
2023-01-11T04:09:40.959Z,94266.97
2023-01-11T04:10:38.137Z,94292.19
2023-01-11T04:11:34.919Z,94290.31
2023-01-11T04:12:31.762Z,94262.53
2023-01-11T04:13:28.692Z,93953.66
2023-01-11T04:14:25.527Z,94263.06
2023-01-11T04:15:22.263Z,94215.28
2023-01-11T04:16:19.006Z,94329.75
2023-01-11T04:17:16.014Z,94111.81
2023-01-11T04:18:12.820Z,94066.75
2023-01-11T04:19:09.595Z,94283.94
2023-01-11T04:20:07.203Z,94284.06
2023-01-11T04:21:04.208Z,94171.94
2023-01-11T04:22:01.012Z,94290.38
2023-01-11T04:23:00.105Z,94304.16
2023-01-11T04:23:56.909Z,94232.88
2023-01-11T04:24:53.739Z,94121.81
2023-01-11T04:25:50.554Z,94139.06
2023-01-11T04:26:47.743Z,94056.91
2023-01-11T04:27:44.435Z,94280.59
2023-01-11T04:28:41.165Z,94271.31
2023-01-11T04:29:38.094Z,94282.44
2023-01-11T04:30:36.090Z,94135.06
2023-01-11T04:31:33.231Z,94317.75
2023-01-11T04:32:30.061Z,94290.38
2023-01-11T04:33:26.907Z,94170.88
2023-01-11T04:34:23.667Z,94169.09
2023-01-11T04:35:20.512Z,94145.84
2023-01-11T04:36:17.312Z,94249.81
2023-01-11T04:37:16.693Z,94101.47
2023-01-11T04:38:13.484Z,94114.41
2023-01-11T04:39:21.095Z,94260.94
2023-01-11T04:40:24.158Z,94003.13
2023-01-11T04:41:39.816Z,94292.44
2023-01-11T04:42:47.664Z,94334.13
2023-01-11T04:43:49.486Z,94198.91
2023-01-11T04:44:50.826Z,94349.06
2023-01-11T04:45:47.661Z,94290.69
2023-01-11T04:46:44.455Z,94298.34
2023-01-11T04:47:41.239Z,94235.47
2023-01-11T04:48:42.012Z,94307.16
2023-01-11T04:49:38.835Z,94332.09
2023-01-11T04:50:35.641Z,93802.03
2023-01-11T04:51:54.118Z,94298.94
2023-01-11T04:52:51.512Z,94091.28
2023-01-11T04:53:49.400Z,94239.75
2023-01-11T04:54:47.265Z,94317.78
2023-01-11T04:55:43.982Z,94325.50
2023-01-11T04:56:40.779Z,94135.00
2023-01-11T04:57:37.651Z,94315.66
2023-01-11T04:58:38.075Z,94321.09
2023-01-11T04:59:35.112Z,94304.94
2023-01-11T05:00:31.842Z,94332.88
2023-01-11T05:01:28.734Z,94329.91
2023-01-11T05:02:25.603Z,94337.91
2023-01-11T05:03:23.044Z,94323.75
2023-01-11T05:04:20.137Z,94189.94
2023-01-11T05:05:17.026Z,94332.94
2023-01-11T05:06:14.874Z,94342.22
2023-01-11T05:07:13.196Z,94331.75
2023-01-11T05:08:09.983Z,94011.22
2023-01-11T05:09:11.977Z,94285.81
2023-01-11T05:10:09.294Z,94286.91
2023-01-11T05:11:08.115Z,94337.72
2023-01-11T05:12:05.090Z,94157.19
2023-01-11T05:13:02.027Z,94330.91
2023-01-11T05:14:00.064Z,94074.97
2023-01-11T05:14:57.220Z,94308.41
2023-01-11T05:15:54.132Z,94339.03
2023-01-11T05:16:51.354Z,94205.47
2023-01-11T05:17:48.181Z,94328.88
2023-01-11T05:18:48.018Z,94352.41
2023-01-11T05:19:44.951Z,94354.38
2023-01-11T05:20:41.677Z,94247.38
2023-01-11T05:21:41.126Z,94235.63
2023-01-11T05:22:37.978Z,94253.78
2023-01-11T05:23:38.458Z,94292.78
2023-01-11T05:24:35.615Z,94321.66
2023-01-11T05:25:32.313Z,94285.78
2023-01-11T05:26:34.617Z,94355.69
2023-01-11T05:27:33.095Z,94364.66
2023-01-11T05:28:29.929Z,94300.28
2023-01-11T05:29:26.814Z,94384.25
2023-01-11T05:30:23.512Z,94188.69
2023-01-11T05:31:20.422Z,93914.94
2023-01-11T05:32:17.208Z,94332.22
2023-01-11T05:33:13.924Z,94258.16
2023-01-11T05:34:13.551Z,94325.53
2023-01-11T05:35:11.285Z,94332.22
2023-01-11T05:36:13.482Z,94310.13
2023-01-11T05:37:10.356Z,94290.16
2023-01-11T05:38:07.105Z,94377.22
2023-01-11T05:39:05.619Z,94366.59
2023-01-11T05:40:02.679Z,94159.00
2023-01-11T05:41:02.343Z,94152.59
2023-01-11T05:41:59.083Z,94316.88
2023-01-11T05:42:55.861Z,94323.22
2023-01-11T05:44:12.880Z,94370.22
2023-01-11T05:45:28.376Z,94349.59
2023-01-11T05:46:26.828Z,94297.53
2023-01-11T05:47:23.659Z,94362.63
2023-01-11T05:48:21.188Z,94150.22
2023-01-11T05:49:17.953Z,94385.28
2023-01-11T05:50:14.892Z,94302.38
2023-01-11T05:51:11.782Z,94238.91
2023-01-11T05:52:08.640Z,94370.94
2023-01-11T05:53:05.651Z,94367.72
2023-01-11T05:54:04.850Z,94300.03
2023-01-11T05:55:01.772Z,94345.44
2023-01-11T05:55:59.010Z,94344.63
2023-01-11T05:56:57.666Z,94366.13
2023-01-11T05:57:54.438Z,94363.56
2023-01-11T05:58:52.619Z,94371.16
2023-01-11T05:59:49.449Z,94344.38
2023-01-11T06:00:55.107Z,94360.72
2023-01-11T06:01:51.882Z,94422.75
2023-01-11T06:02:48.791Z,94328.66
2023-01-11T06:03:46.174Z,94168.91
2023-01-11T06:04:43.209Z,94385.56
2023-01-11T06:05:40.161Z,94369.31
2023-01-11T06:06:37.012Z,94398.38
2023-01-11T06:07:33.926Z,94383.91
2023-01-11T06:08:30.716Z,94337.59
2023-01-11T06:09:28.278Z,94359.19
2023-01-11T06:10:24.969Z,94315.81
2023-01-11T06:11:21.726Z,94387.00
2023-01-11T06:12:18.492Z,94390.63
2023-01-11T06:13:26.918Z,94341.94
2023-01-11T06:14:23.698Z,94335.31
2023-01-11T06:15:20.476Z,94312.59
2023-01-11T06:16:19.825Z,94409.28
2023-01-11T06:17:16.648Z,94183.59
2023-01-11T06:18:13.588Z,94350.59
2023-01-11T06:19:11.503Z,94297.31
2023-01-11T06:20:09.180Z,93939.41
2023-01-11T06:21:07.105Z,94410.13
2023-01-11T06:22:04.179Z,94353.72
2023-01-11T06:23:01.026Z,94418.66
2023-01-11T06:23:57.753Z,94419.94
2023-01-11T06:24:54.493Z,94424.09
2023-01-11T06:25:51.924Z,94352.44
2023-01-11T06:26:48.729Z,94430.22
2023-01-11T06:27:45.583Z,94367.59
2023-01-11T06:28:43.442Z,94303.09
2023-01-11T06:29:40.250Z,94419.31
2023-01-11T06:30:37.326Z,94171.34
2023-01-11T06:31:34.350Z,94406.91
2023-01-11T06:32:31.328Z,94263.84
2023-01-11T06:33:29.807Z,94218.84
2023-01-11T06:34:26.556Z,94408.06
2023-01-11T06:35:23.387Z,94451.09
2023-01-11T06:36:20.179Z,94321.19
2023-01-11T06:37:16.902Z,94419.69
2023-01-11T06:38:16.202Z,94410.09
2023-01-11T06:39:13.018Z,94370.09
2023-01-11T06:40:10.551Z,94218.34
2023-01-11T06:41:09.442Z,94416.34
2023-01-11T06:42:06.267Z,94349.63
2023-01-11T06:43:03.105Z,94223.03
2023-01-11T06:43:59.855Z,94192.88
2023-01-11T06:44:56.657Z,94426.53
2023-01-11T06:45:53.933Z,94411.28
2023-01-11T06:46:50.780Z,94438.91
2023-01-11T06:47:47.597Z,94436.13
2023-01-11T06:48:44.950Z,94392.31
2023-01-11T06:49:41.804Z,94422.50
2023-01-11T06:50:38.557Z,94432.38
2023-01-11T06:51:35.364Z,94431.13
2023-01-11T06:52:32.124Z,94234.63
2023-01-11T06:53:29.651Z,94381.56
2023-01-11T06:54:26.567Z,94427.38
2023-01-11T06:55:25.267Z,94449.88
2023-01-11T06:56:23.611Z,94443.69
2023-01-11T06:57:20.471Z,94432.53
2023-01-11T06:58:17.450Z,94401.72
2023-01-11T06:59:15.181Z,94378.25
2023-01-11T07:00:12.562Z,94407.22
2023-01-11T07:01:09.461Z,94410.72
2023-01-11T07:02:06.566Z,94430.94
2023-01-11T07:03:04.695Z,94317.28
2023-01-11T07:04:01.515Z,94318.13
2023-01-11T07:04:58.300Z,94405.13
2023-01-11T07:05:57.164Z,94223.41
2023-01-11T07:06:55.572Z,94451.94
2023-01-11T07:07:52.387Z,94262.44
2023-01-11T07:08:49.306Z,94484.63
2023-01-11T07:09:46.130Z,94375.44
2023-01-11T07:10:43.817Z,94274.16
2023-01-11T07:11:40.633Z,94325.41
2023-01-11T07:12:38.001Z,94449.91
2023-01-11T07:13:35.407Z,94336.66
2023-01-11T07:14:32.266Z,94199.75
2023-01-11T07:15:30.302Z,94360.13
2023-01-11T07:16:27.129Z,94396.38
2023-01-11T07:17:23.925Z,94473.56
2023-01-11T07:18:20.797Z,94260.41
2023-01-11T07:19:18.397Z,94313.72
2023-01-11T07:20:15.512Z,94308.41
2023-01-11T07:21:12.309Z,94452.59
2023-01-11T07:22:09.103Z,94253.63
2023-01-11T07:23:07.862Z,94425.22
2023-01-11T07:24:05.280Z,94386.69
2023-01-11T07:25:04.206Z,94462.78
2023-01-11T07:26:01.006Z,94280.59
2023-01-11T07:26:59.685Z,94442.69
2023-01-11T07:28:01.540Z,94464.53
2023-01-11T07:28:58.265Z,94530.50
2023-01-11T07:29:55.075Z,94470.22
2023-01-11T07:30:58.824Z,94427.75
2023-01-11T07:31:56.332Z,94486.97
2023-01-11T07:32:53.207Z,94490.66
2023-01-11T07:33:50.060Z,94476.34
2023-01-11T07:34:47.134Z,94497.78
2023-01-11T07:35:43.902Z,94503.94
2023-01-11T07:36:41.028Z,94490.94
2023-01-11T07:37:38.181Z,94048.03
2023-01-11T07:38:35.271Z,94360.44
2023-01-11T07:39:42.695Z,94375.91
2023-01-11T07:40:40.489Z,94512.06
2023-01-11T07:41:55.733Z,94458.34
2023-01-11T07:43:14.608Z,94454.66
2023-01-11T07:44:11.657Z,94320.84
2023-01-11T07:45:08.838Z,94516.59
2023-01-11T07:46:05.919Z,94534.25
2023-01-11T07:47:02.914Z,94315.13
2023-01-11T07:47:59.698Z,94304.50
2023-01-11T07:48:56.470Z,94451.13
2023-01-11T07:49:53.791Z,94242.25
2023-01-11T07:50:52.455Z,94453.69
2023-01-11T07:51:52.042Z,94327.16
2023-01-11T07:52:49.989Z,94495.03
2023-01-11T07:53:47.423Z,94527.56
2023-01-11T07:54:44.229Z,94418.97
2023-01-11T07:55:41.417Z,94482.50
2023-01-11T07:56:38.198Z,94419.06
2023-01-11T07:57:35.042Z,94529.81
2023-01-11T07:58:32.625Z,94501.13
2023-01-11T07:59:30.633Z,94480.69
2023-01-11T08:00:27.574Z,94560.38
2023-01-11T08:01:24.817Z,94522.97
2023-01-11T08:02:21.655Z,94541.72
2023-01-11T08:03:18.671Z,94545.88
2023-01-11T08:04:15.630Z,94575.09
2023-01-11T08:05:12.358Z,94544.59
2023-01-11T08:06:09.199Z,94533.53
2023-01-11T08:07:06.055Z,94491.06
2023-01-11T08:08:03.168Z,94523.16
2023-01-11T08:08:59.962Z,94327.63
2023-01-11T08:09:56.807Z,94522.66
2023-01-11T08:11:12.237Z,94256.41
2023-01-11T08:12:27.571Z,94512.66
2023-01-11T08:13:42.668Z,94339.66
2023-01-11T08:14:39.473Z,94544.09
2023-01-11T08:15:36.783Z,94492.72
2023-01-11T08:16:33.617Z,94552.72
2023-01-11T08:17:30.694Z,94444.81
2023-01-11T08:18:27.561Z,94557.75
2023-01-11T08:19:24.382Z,94330.75
2023-01-11T08:20:21.280Z,94566.31
2023-01-11T08:21:18.560Z,94357.06
2023-01-11T08:22:15.512Z,94499.91
2023-01-11T08:23:12.427Z,94590.72
2023-01-11T08:24:09.255Z,94576.53
2023-01-11T08:25:06.602Z,94576.19
2023-01-11T08:26:03.638Z,94502.19
2023-01-11T08:27:01.575Z,94450.69
2023-01-11T08:28:02.780Z,94553.13
2023-01-11T08:28:59.603Z,94559.88
2023-01-11T08:29:56.443Z,94521.31
2023-01-11T08:30:53.889Z,94566.81
2023-01-11T08:31:50.803Z,94504.97
2023-01-11T08:32:47.668Z,94554.53
2023-01-11T08:33:44.625Z,94484.53
2023-01-11T08:34:41.722Z,94562.75
2023-01-11T08:35:39.667Z,94444.38
2023-01-11T08:36:36.533Z,94564.06
2023-01-11T08:37:33.298Z,94568.63
2023-01-11T08:38:30.088Z,94497.69
2023-01-11T08:39:29.549Z,94610.13
2023-01-11T08:40:26.437Z,94607.88
2023-01-11T08:41:24.223Z,94391.22
2023-01-11T08:42:20.981Z,94476.47
2023-01-11T08:43:17.787Z,94488.56
2023-01-11T08:44:22.325Z,94595.63
2023-01-11T08:45:29.769Z,94576.91
2023-01-11T08:46:26.930Z,94600.13
2023-01-11T08:47:23.931Z,94548.31
2023-01-11T08:48:20.772Z,94484.19
2023-01-11T08:49:17.727Z,94579.88
2023-01-11T08:50:16.308Z,94586.84
2023-01-11T08:51:15.570Z,94391.06
2023-01-11T08:52:14.143Z,94508.47
2023-01-11T08:53:12.310Z,94458.22
2023-01-11T08:54:14.163Z,94390.75
2023-01-11T08:55:11.035Z,94549.03
2023-01-11T08:56:08.964Z,94446.09
2023-01-11T08:57:05.913Z,94497.66
2023-01-11T08:58:03.036Z,94392.22
2023-01-11T08:59:01.348Z,94632.78
2023-01-11T08:59:58.110Z,94380.69
2023-01-11T09:00:57.933Z,94299.00
2023-01-11T09:01:54.789Z,94369.09
2023-01-11T09:02:51.687Z,94531.84
2023-01-11T09:03:48.475Z,94564.97
2023-01-11T09:04:45.239Z,94484.38
2023-01-11T09:05:42.400Z,94559.78
2023-01-11T09:06:39.349Z,94563.34
2023-01-11T09:07:36.141Z,94584.00
2023-01-11T09:08:33.009Z,94560.25
2023-01-11T09:09:30.883Z,94599.22
2023-01-11T09:10:28.035Z,94595.00
2023-01-11T09:11:43.498Z,94660.31
2023-01-11T09:12:40.373Z,94466.06
2023-01-11T09:13:37.219Z,94395.84
2023-01-11T09:14:34.428Z,94512.91
2023-01-11T09:15:31.243Z,94532.31
2023-01-11T09:16:28.073Z,94301.84
2023-01-11T09:17:24.984Z,94615.28
2023-01-11T09:18:21.813Z,94496.22
2023-01-11T09:19:18.791Z,94589.88
2023-01-11T09:20:16.704Z,94495.22
2023-01-11T09:21:14.043Z,94415.03
2023-01-11T09:22:10.874Z,94572.84
2023-01-11T09:23:07.718Z,94623.16
2023-01-11T09:24:05.176Z,94561.91
2023-01-11T09:25:02.166Z,94611.19
2023-01-11T09:25:58.980Z,94421.53
2023-01-11T09:26:59.862Z,94596.50
2023-01-11T09:27:56.759Z,94595.94
2023-01-11T09:28:53.744Z,94601.41
2023-01-11T09:29:50.603Z,94390.03
2023-01-11T09:30:47.404Z,94579.03
2023-01-11T09:31:44.201Z,94633.84
2023-01-11T09:32:41.148Z,94521.75
2023-01-11T09:33:41.108Z,94615.88
2023-01-11T09:34:38.358Z,94617.00
2023-01-11T09:35:35.910Z,94630.31
2023-01-11T09:36:35.957Z,94611.38
2023-01-11T09:37:33.100Z,94601.22
2023-01-11T09:38:30.921Z,94395.44
2023-01-11T09:39:28.908Z,94484.19
2023-01-11T09:40:46.042Z,94604.88
2023-01-11T09:42:06.292Z,94568.50
2023-01-11T09:43:07.314Z,94635.69
2023-01-11T09:44:23.162Z,94458.13
2023-01-11T09:45:30.549Z,94543.69
2023-01-11T09:46:30.109Z,94523.53
2023-01-11T09:47:42.750Z,94614.41
2023-01-11T09:48:48.311Z,94642.25
2023-01-11T09:49:56.140Z,94630.50
2023-01-11T09:50:53.356Z,94483.72
2023-01-11T09:51:52.318Z,94467.72
2023-01-11T09:52:57.464Z,94588.25
2023-01-11T09:53:54.573Z,94617.78
2023-01-11T09:54:52.167Z,94552.59
2023-01-11T09:55:52.266Z,94562.91
2023-01-11T09:57:06.967Z,94565.44
2023-01-11T09:58:12.888Z,94602.72
2023-01-11T09:59:34.246Z,94470.75
2023-01-11T10:00:52.615Z,94593.50
2023-01-11T10:01:55.927Z,94586.50
2023-01-11T10:03:20.969Z,94600.00
2023-01-11T10:04:33.781Z,94601.00
2023-01-11T10:05:50.116Z,94594.16
2023-01-11T10:06:59.199Z,94017.41
2023-01-11T10:18:31.766Z,94605.41
2023-01-11T10:18:32.543Z,94625.16
2023-01-11T10:19:04.298Z,94598.59
2023-01-11T10:20:05.469Z,94584.09
2023-01-11T10:21:25.174Z,94600.78
2023-01-11T10:22:33.705Z,94545.63
2023-01-11T10:23:50.420Z,94593.75
2023-01-11T10:25:01.616Z,94602.41
2023-01-11T10:26:05.123Z,94381.38
2023-01-11T10:27:08.329Z,94411.31
2023-01-11T10:28:13.287Z,94478.47
2023-01-11T10:29:18.814Z,94593.97
2023-01-11T10:30:37.456Z,94604.25
2023-01-11T10:32:08.731Z,94518.00
2023-01-11T10:33:29.248Z,94617.13
2023-01-11T10:34:47.974Z,94576.88
2023-01-11T10:36:18.888Z,94588.72
2023-01-11T10:37:28.540Z,94363.69
2023-01-11T10:38:55.099Z,94624.72
2023-01-11T10:40:35.377Z,94464.97
2023-01-11T10:41:49.079Z,94543.03
2023-01-11T10:43:04.622Z,94327.78
2023-01-11T10:44:07.401Z,94594.53
2023-01-11T10:45:15.750Z,94461.50
2023-01-11T10:46:18.894Z,94549.47
2023-01-11T10:47:23.046Z,94628.53
2023-01-11T10:48:38.044Z,94598.59
2023-01-11T10:49:51.764Z,94475.00
2023-01-11T10:50:58.395Z,94577.06
2023-01-11T10:52:04.808Z,94510.44
2023-01-11T10:53:30.429Z,94606.63
2023-01-11T10:54:33.238Z,94429.53
2023-01-11T10:56:20.872Z,94564.28
2023-01-11T10:58:01.437Z,94606.06
2023-01-11T10:59:46.832Z,94587.69
2023-01-11T11:00:51.540Z,94586.69
2023-01-11T11:01:54.383Z,94618.31
2023-01-11T11:03:15.342Z,94593.56
2023-01-11T11:04:57.800Z,94588.94
2023-01-11T11:06:10.831Z,94538.81
2023-01-11T11:07:35.458Z,94460.56
2023-01-11T11:08:43.580Z,94549.91
2023-01-11T11:09:43.573Z,94581.69
2023-01-11T11:11:17.178Z,94407.09
2023-01-11T11:12:29.169Z,94622.75
2023-01-11T11:13:43.388Z,94582.69
2023-01-11T11:15:08.045Z,94536.22
2023-01-11T11:16:20.225Z,94576.22
2023-01-11T11:17:35.548Z,94587.34
2023-01-11T11:18:32.423Z,94547.50
2023-01-11T11:19:33.128Z,94590.53
2023-01-11T11:20:33.764Z,94554.91
2023-01-11T11:21:38.993Z,94593.75
2023-01-11T11:22:35.782Z,94594.56
2023-01-11T11:23:35.124Z,94482.25
2023-01-11T11:24:55.271Z,94483.09
2023-01-11T11:25:58.817Z,94624.34
2023-01-11T11:27:18.113Z,94588.13
2023-01-11T11:28:14.878Z,94583.69
2023-01-11T11:29:22.671Z,94598.38
2023-01-11T11:30:30.687Z,94576.03
2023-01-11T11:31:30.164Z,94564.38
2023-01-11T11:32:37.879Z,94252.47
2023-01-11T11:33:40.295Z,94586.09
2023-01-11T11:34:46.592Z,94277.25
2023-01-11T11:35:46.365Z,94577.47
2023-01-11T11:36:46.356Z,94481.69
2023-01-11T11:37:46.055Z,94532.97
2023-01-11T11:39:02.840Z,94448.91
2023-01-11T11:39:59.916Z,94417.16
2023-01-11T11:41:05.194Z,94585.72
2023-01-11T11:42:07.648Z,94547.84
2023-01-11T11:43:10.567Z,94594.53
2023-01-11T11:44:18.856Z,94543.28
2023-01-11T11:45:17.177Z,94507.13
2023-01-11T11:46:18.675Z,94601.78
2023-01-11T11:47:17.717Z,94567.56
2023-01-11T11:48:14.509Z,94268.97
2023-01-11T11:49:16.794Z,94600.75
2023-01-11T11:50:37.015Z,94590.13
2023-01-11T11:51:36.985Z,94368.56
2023-01-11T11:52:34.374Z,94389.84
2023-01-11T11:53:34.609Z,94601.34
2023-01-11T11:54:31.377Z,94601.56
2023-01-11T11:55:33.155Z,94462.16
2023-01-11T11:56:33.974Z,94587.09
2023-01-11T11:57:38.969Z,94235.03
2023-01-11T11:58:42.623Z,94451.88
2023-01-11T11:59:49.375Z,94601.81
2023-01-11T12:00:52.218Z,94615.91
2023-01-11T12:02:03.612Z,94602.81
2023-01-11T12:03:33.177Z,94602.22
2023-01-11T12:04:47.176Z,94303.06
2023-01-11T12:06:01.143Z,94570.38
2023-01-11T12:07:27.235Z,94599.78
2023-01-11T12:08:26.023Z,94450.94
2023-01-11T12:09:40.166Z,94607.84
2023-01-11T12:10:48.980Z,94539.56
2023-01-11T12:11:48.666Z,94584.66
2023-01-11T12:12:57.626Z,94662.59
2023-01-11T12:14:02.533Z,94585.50
2023-01-11T12:15:22.208Z,94612.84
2023-01-11T12:16:21.740Z,94608.03
2023-01-11T12:17:24.811Z,94611.03
2023-01-11T12:18:41.535Z,94492.72
2023-01-11T12:19:45.236Z,94611.69
2023-01-11T12:20:42.455Z,94467.38
2023-01-11T12:21:39.319Z,94463.38
2023-01-11T12:22:36.119Z,94442.06